sensor_id;sensor_type;location;lat;lon;timestamp;P1;durP1;ratioP1;P2;durP2;ratioP2
3417;SDS011;68007;51.312;12.372;2023-11-21T00:00:43;9.20;;;3.97;;
3417;SDS011;68007;51.312;12.372;2023-11-21T00:03:11;6.60;;;2.90;;
3417;SDS011;68007;51.312;12.372;2023-11-21T00:05:40;7.27;;;2.73;;
3417;SDS011;68007;51.312;12.372;2023-11-21T00:08:08;4.50;;;2.57;;
3417;SDS011;68007;51.312;12.372;2023-11-21T00:10:36;3.97;;;2.70;;
3417;SDS011;68007;51.312;12.372;2023-11-21T00:13:04;3.87;;;2.80;;
3417;SDS011;68007;51.312;12.372;2023-11-21T00:15:32;5.03;;;2.80;;
3417;SDS011;68007;51.312;12.372;2023-11-21T00:18:01;5.13;;;2.87;;
3417;SDS011;68007;51.312;12.372;2023-11-21T00:20:28;4.50;;;2.90;;
3417;SDS011;68007;51.312;12.372;2023-11-21T00:22:55;4.00;;;2.63;;
3417;SDS011;68007;51.312;12.372;2023-11-21T00:25:23;4.87;;;2.30;;
3417;SDS011;68007;51.312;12.372;2023-11-21T00:27:50;4.30;;;1.80;;
3417;SDS011;68007;51.312;12.372;2023-11-21T00:30:18;4.00;;;2.47;;
3417;SDS011;68007;51.312;12.372;2023-11-21T00:32:47;3.30;;;2.40;;
3417;SDS011;68007;51.312;12.372;2023-11-21T00:35:16;6.40;;;2.17;;
3417;SDS011;68007;51.312;12.372;2023-11-21T00:37:44;3.00;;;2.13;;
3417;SDS011;68007;51.312;12.372;2023-11-21T00:40:11;3.70;;;2.37;;
3417;SDS011;68007;51.312;12.372;2023-11-21T00:42:41;3.00;;;1.83;;
3417;SDS011;68007;51.312;12.372;2023-11-21T00:45:09;6.30;;;2.27;;
3417;SDS011;68007;51.312;12.372;2023-11-21T00:47:37;2.97;;;1.90;;
3417;SDS011;68007;51.312;12.372;2023-11-21T00:50:05;2.30;;;2.00;;
3417;SDS011;68007;51.312;12.372;2023-11-21T00:52:34;3.67;;;2.03;;
3417;SDS011;68007;51.312;12.372;2023-11-21T00:55:02;2.40;;;1.70;;
3417;SDS011;68007;51.312;12.372;2023-11-21T00:57:30;3.60;;;2.17;;
3417;SDS011;68007;51.312;12.372;2023-11-21T00:59:57;5.20;;;1.90;;
3417;SDS011;68007;51.312;12.372;2023-11-21T01:02:25;2.60;;;1.77;;
3417;SDS011;68007;51.312;12.372;2023-11-21T01:04:53;3.73;;;1.90;;
3417;SDS011;68007;51.312;12.372;2023-11-21T01:07:20;5.00;;;1.93;;
3417;SDS011;68007;51.312;12.372;2023-11-21T01:09:49;2.00;;;1.80;;
3417;SDS011;68007;51.312;12.372;2023-11-21T01:12:17;4.13;;;1.70;;
3417;SDS011;68007;51.312;12.372;2023-11-21T01:14:44;4.00;;;2.00;;
3417;SDS011;68007;51.312;12.372;2023-11-21T01:17:12;3.10;;;1.60;;
3417;SDS011;68007;51.312;12.372;2023-11-21T01:19:39;2.00;;;1.80;;
3417;SDS011;68007;51.312;12.372;2023-11-21T01:22:07;3.30;;;1.50;;
3417;SDS011;68007;51.312;12.372;2023-11-21T01:24:35;3.10;;;1.90;;
3417;SDS011;68007;51.312;12.372;2023-11-21T01:27:04;3.80;;;1.70;;
3417;SDS011;68007;51.312;12.372;2023-11-21T01:29:31;1.67;;;1.40;;
3417;SDS011;68007;51.312;12.372;2023-11-21T01:32:00;4.13;;;1.60;;
3417;SDS011;68007;51.312;12.372;2023-11-21T01:34:29;3.20;;;1.60;;
3417;SDS011;68007;51.312;12.372;2023-11-21T01:36:56;4.57;;;1.40;;
3417;SDS011;68007;51.312;12.372;2023-11-21T01:39:24;3.77;;;1.53;;
3417;SDS011;68007;51.312;12.372;2023-11-21T01:41:52;2.57;;;1.47;;
3417;SDS011;68007;51.312;12.372;2023-11-21T01:44:21;6.53;;;1.60;;
3417;SDS011;68007;51.312;12.372;2023-11-21T01:46:50;2.73;;;1.63;;
3417;SDS011;68007;51.312;12.372;2023-11-21T01:49:19;4.10;;;1.90;;
3417;SDS011;68007;51.312;12.372;2023-11-21T01:51:48;8.83;;;2.30;;
3417;SDS011;68007;51.312;12.372;2023-11-21T01:54:16;2.30;;;1.50;;
3417;SDS011;68007;51.312;12.372;2023-11-21T01:56:44;4.20;;;1.70;;
3417;SDS011;68007;51.312;12.372;2023-11-21T01:59:14;3.40;;;1.40;;
3417;SDS011;68007;51.312;12.372;2023-11-21T02:01:47;4.57;;;1.80;;
3417;SDS011;68007;51.312;12.372;2023-11-21T02:04:16;2.30;;;1.57;;
3417;SDS011;68007;51.312;12.372;2023-11-21T02:06:43;3.03;;;1.40;;
3417;SDS011;68007;51.312;12.372;2023-11-21T02:09:11;4.33;;;1.50;;
3417;SDS011;68007;51.312;12.372;2023-11-21T02:11:41;3.77;;;1.40;;
3417;SDS011;68007;51.312;12.372;2023-11-21T02:14:08;4.60;;;1.87;;
3417;SDS011;68007;51.312;12.372;2023-11-21T02:16:36;6.43;;;2.33;;
3417;SDS011;68007;51.312;12.372;2023-11-21T02:19:07;3.03;;;1.57;;
3417;SDS011;68007;51.312;12.372;2023-11-21T02:21:38;5.93;;;1.97;;
3417;SDS011;68007;51.312;12.372;2023-11-21T02:24:08;3.77;;;1.80;;
3417;SDS011;68007;51.312;12.372;2023-11-21T02:26:36;6.73;;;2.00;;
3417;SDS011;68007;51.312;12.372;2023-11-21T02:29:03;2.60;;;1.50;;
3417;SDS011;68007;51.312;12.372;2023-11-21T02:31:31;5.77;;;1.60;;
3417;SDS011;68007;51.312;12.372;2023-11-21T02:33:58;3.70;;;1.80;;
3417;SDS011;68007;51.312;12.372;2023-11-21T02:36:26;2.70;;;1.60;;
3417;SDS011;68007;51.312;12.372;2023-11-21T02:38:53;4.43;;;1.93;;
3417;SDS011;68007;51.312;12.372;2023-11-21T02:41:22;6.50;;;1.80;;
3417;SDS011;68007;51.312;12.372;2023-11-21T02:43:49;6.07;;;2.60;;
3417;SDS011;68007;51.312;12.372;2023-11-21T02:46:17;4.30;;;2.20;;
3417;SDS011;68007;51.312;12.372;2023-11-21T02:48:44;4.33;;;2.17;;
3417;SDS011;68007;51.312;12.372;2023-11-21T02:51:12;8.23;;;2.33;;
3417;SDS011;68007;51.312;12.372;2023-11-21T02:53:41;5.93;;;2.50;;
3417;SDS011;68007;51.312;12.372;2023-11-21T02:56:09;4.70;;;2.10;;
3417;SDS011;68007;51.312;12.372;2023-11-21T02:58:37;3.07;;;2.20;;
3417;SDS011;68007;51.312;12.372;2023-11-21T03:01:08;6.57;;;2.30;;
3417;SDS011;68007;51.312;12.372;2023-11-21T03:03:36;5.23;;;1.87;;
3417;SDS011;68007;51.312;12.372;2023-11-21T03:06:06;4.80;;;2.20;;
3417;SDS011;68007;51.312;12.372;2023-11-21T03:08:34;2.60;;;1.90;;
3417;SDS011;68007;51.312;12.372;2023-11-21T03:11:01;3.83;;;2.33;;
3417;SDS011;68007;51.312;12.372;2023-11-21T03:13:29;4.10;;;2.27;;
3417;SDS011;68007;51.312;12.372;2023-11-21T03:15:58;5.23;;;2.57;;
3417;SDS011;68007;51.312;12.372;2023-11-21T03:18:26;8.97;;;2.53;;
3417;SDS011;68007;51.312;12.372;2023-11-21T03:20:54;5.07;;;2.20;;
3417;SDS011;68007;51.312;12.372;2023-11-21T03:23:22;5.13;;;2.63;;
3417;SDS011;68007;51.312;12.372;2023-11-21T03:25:50;3.97;;;2.40;;
3417;SDS011;68007;51.312;12.372;2023-11-21T03:28:17;5.70;;;2.70;;
3417;SDS011;68007;51.312;12.372;2023-11-21T03:30:45;4.83;;;2.10;;
3417;SDS011;68007;51.312;12.372;2023-11-21T03:33:14;5.73;;;2.50;;
3417;SDS011;68007;51.312;12.372;2023-11-21T03:35:41;7.20;;;2.53;;
3417;SDS011;68007;51.312;12.372;2023-11-21T03:38:10;5.67;;;2.37;;
3417;SDS011;68007;51.312;12.372;2023-11-21T03:40:38;6.73;;;2.30;;
3417;SDS011;68007;51.312;12.372;2023-11-21T03:43:06;4.80;;;2.60;;
3417;SDS011;68007;51.312;12.372;2023-11-21T03:45:33;3.63;;;2.47;;
3417;SDS011;68007;51.312;12.372;2023-11-21T03:48:01;7.03;;;2.50;;
3417;SDS011;68007;51.312;12.372;2023-11-21T03:50:29;5.63;;;2.97;;
3417;SDS011;68007;51.312;12.372;2023-11-21T03:52:57;5.83;;;2.27;;
3417;SDS011;68007;51.312;12.372;2023-11-21T03:55:25;4.70;;;2.77;;
3417;SDS011;68007;51.312;12.372;2023-11-21T03:57:52;4.90;;;2.63;;
3417;SDS011;68007;51.312;12.372;2023-11-21T04:00:20;4.43;;;2.10;;
3417;SDS011;68007;51.312;12.372;2023-11-21T04:02:48;4.03;;;2.37;;
3417;SDS011;68007;51.312;12.372;2023-11-21T04:05:17;5.30;;;2.43;;
3417;SDS011;68007;51.312;12.372;2023-11-21T04:07:47;5.60;;;2.97;;
3417;SDS011;68007;51.312;12.372;2023-11-21T04:10:15;4.20;;;2.30;;
3417;SDS011;68007;51.312;12.372;2023-11-21T04:12:43;6.40;;;2.70;;
3417;SDS011;68007;51.312;12.372;2023-11-21T04:15:11;4.70;;;2.33;;
3417;SDS011;68007;51.312;12.372;2023-11-21T04:17:39;7.70;;;2.67;;
3417;SDS011;68007;51.312;12.372;2023-11-21T04:20:07;7.50;;;3.47;;
3417;SDS011;68007;51.312;12.372;2023-11-21T04:22:36;3.30;;;2.10;;
3417;SDS011;68007;51.312;12.372;2023-11-21T04:25:09;6.10;;;3.20;;
3417;SDS011;68007;51.312;12.372;2023-11-21T04:27:38;4.93;;;2.90;;
3417;SDS011;68007;51.312;12.372;2023-11-21T04:30:06;5.70;;;2.93;;
3417;SDS011;68007;51.312;12.372;2023-11-21T04:32:35;3.80;;;2.60;;
3417;SDS011;68007;51.312;12.372;2023-11-21T04:35:03;5.70;;;3.00;;
3417;SDS011;68007;51.312;12.372;2023-11-21T04:37:31;5.47;;;2.67;;
3417;SDS011;68007;51.312;12.372;2023-11-21T04:39:59;6.13;;;2.67;;
3417;SDS011;68007;51.312;12.372;2023-11-21T04:42:28;4.80;;;2.50;;
3417;SDS011;68007;51.312;12.372;2023-11-21T04:44:55;6.37;;;2.83;;
3417;SDS011;68007;51.312;12.372;2023-11-21T04:47:23;4.30;;;3.00;;
3417;SDS011;68007;51.312;12.372;2023-11-21T04:49:50;5.03;;;2.67;;
3417;SDS011;68007;51.312;12.372;2023-11-21T04:52:18;7.20;;;2.40;;
3417;SDS011;68007;51.312;12.372;2023-11-21T04:54:45;5.93;;;2.80;;
3417;SDS011;68007;51.312;12.372;2023-11-21T04:57:14;4.33;;;2.77;;
3417;SDS011;68007;51.312;12.372;2023-11-21T04:59:45;6.27;;;2.73;;
3417;SDS011;68007;51.312;12.372;2023-11-21T05:02:12;4.10;;;2.60;;
3417;SDS011;68007;51.312;12.372;2023-11-21T05:04:40;6.30;;;2.87;;
3417;SDS011;68007;51.312;12.372;2023-11-21T05:07:09;5.77;;;2.67;;
3417;SDS011;68007;51.312;12.372;2023-11-21T05:09:36;9.10;;;3.10;;
3417;SDS011;68007;51.312;12.372;2023-11-21T05:12:09;8.90;;;3.63;;
3417;SDS011;68007;51.312;12.372;2023-11-21T05:14:37;6.10;;;2.93;;
3417;SDS011;68007;51.312;12.372;2023-11-21T05:17:06;3.33;;;2.53;;
3417;SDS011;68007;51.312;12.372;2023-11-21T05:19:34;4.03;;;2.67;;
3417;SDS011;68007;51.312;12.372;2023-11-21T05:22:02;7.10;;;2.97;;
3417;SDS011;68007;51.312;12.372;2023-11-21T05:24:31;5.33;;;2.60;;
3417;SDS011;68007;51.312;12.372;2023-11-21T05:26:59;6.67;;;2.77;;
3417;SDS011;68007;51.312;12.372;2023-11-21T05:29:26;4.50;;;2.90;;
3417;SDS011;68007;51.312;12.372;2023-11-21T05:31:54;7.67;;;3.20;;
3417;SDS011;68007;51.312;12.372;2023-11-21T05:34:22;6.93;;;3.33;;
3417;SDS011;68007;51.312;12.372;2023-11-21T05:36:50;8.53;;;3.30;;
3417;SDS011;68007;51.312;12.372;2023-11-21T05:39:17;4.20;;;2.90;;
3417;SDS011;68007;51.312;12.372;2023-11-21T05:41:45;5.17;;;3.30;;
3417;SDS011;68007;51.312;12.372;2023-11-21T05:44:12;9.30;;;3.40;;
3417;SDS011;68007;51.312;12.372;2023-11-21T05:46:40;5.40;;;3.27;;
3417;SDS011;68007;51.312;12.372;2023-11-21T05:49:09;7.50;;;2.90;;
3417;SDS011;68007;51.312;12.372;2023-11-21T05:51:38;8.30;;;3.40;;
3417;SDS011;68007;51.312;12.372;2023-11-21T05:54:05;7.03;;;3.03;;
3417;SDS011;68007;51.312;12.372;2023-11-21T05:56:33;8.97;;;3.30;;
3417;SDS011;68007;51.312;12.372;2023-11-21T05:59:01;6.30;;;3.50;;
3417;SDS011;68007;51.312;12.372;2023-11-21T06:01:29;6.13;;;3.20;;
3417;SDS011;68007;51.312;12.372;2023-11-21T06:03:56;5.23;;;3.13;;
3417;SDS011;68007;51.312;12.372;2023-11-21T06:06:24;9.67;;;3.67;;
3417;SDS011;68007;51.312;12.372;2023-11-21T06:08:53;10.87;;;3.43;;
3417;SDS011;68007;51.312;12.372;2023-11-21T06:11:21;6.20;;;3.60;;
3417;SDS011;68007;51.312;12.372;2023-11-21T06:13:49;5.07;;;3.60;;
3417;SDS011;68007;51.312;12.372;2023-11-21T06:16:19;6.37;;;3.60;;
3417;SDS011;68007;51.312;12.372;2023-11-21T06:18:46;6.80;;;3.00;;
3417;SDS011;68007;51.312;12.372;2023-11-21T06:21:14;8.00;;;3.63;;
3417;SDS011;68007;51.312;12.372;2023-11-21T06:23:42;12.30;;;4.80;;
3417;SDS011;68007;51.312;12.372;2023-11-21T06:26:11;8.73;;;4.10;;
3417;SDS011;68007;51.312;12.372;2023-11-21T06:28:38;6.20;;;3.57;;
3417;SDS011;68007;51.312;12.372;2023-11-21T06:31:07;9.97;;;3.60;;
3417;SDS011;68007;51.312;12.372;2023-11-21T06:33:34;6.93;;;3.60;;
3417;SDS011;68007;51.312;12.372;2023-11-21T06:36:02;8.23;;;5.07;;
3417;SDS011;68007;51.312;12.372;2023-11-21T06:38:30;9.50;;;3.87;;
3417;SDS011;68007;51.312;12.372;2023-11-21T06:40:57;9.67;;;4.53;;
3417;SDS011;68007;51.312;12.372;2023-11-21T06:43:29;15.13;;;4.43;;
3417;SDS011;68007;51.312;12.372;2023-11-21T06:45:57;9.17;;;4.53;;
3417;SDS011;68007;51.312;12.372;2023-11-21T06:48:25;13.10;;;4.80;;
3417;SDS011;68007;51.312;12.372;2023-11-21T06:50:52;9.10;;;4.90;;
3417;SDS011;68007;51.312;12.372;2023-11-21T06:53:20;8.23;;;4.37;;
3417;SDS011;68007;51.312;12.372;2023-11-21T06:55:47;12.23;;;4.80;;
3417;SDS011;68007;51.312;12.372;2023-11-21T06:58:15;13.73;;;5.50;;
3417;SDS011;68007;51.312;12.372;2023-11-21T07:00:43;11.43;;;5.57;;
3417;SDS011;68007;51.312;12.372;2023-11-21T07:03:14;12.90;;;4.87;;
3417;SDS011;68007;51.312;12.372;2023-11-21T07:05:41;13.13;;;5.53;;
3417;SDS011;68007;51.312;12.372;2023-11-21T07:08:09;9.73;;;5.13;;
3417;SDS011;68007;51.312;12.372;2023-11-21T07:10:37;5.17;;;4.60;;
3417;SDS011;68007;51.312;12.372;2023-11-21T07:13:04;9.00;;;5.40;;
3417;SDS011;68007;51.312;12.372;2023-11-21T07:15:32;7.60;;;4.93;;
3417;SDS011;68007;51.312;12.372;2023-11-21T07:18:01;11.77;;;5.70;;
3417;SDS011;68007;51.312;12.372;2023-11-21T07:20:29;11.77;;;5.63;;
3417;SDS011;68007;51.312;12.372;2023-11-21T07:22:57;8.07;;;5.30;;
3417;SDS011;68007;51.312;12.372;2023-11-21T07:25:25;9.27;;;5.43;;
3417;SDS011;68007;51.312;12.372;2023-11-21T07:27:53;10.60;;;5.10;;
3417;SDS011;68007;51.312;12.372;2023-11-21T07:30:20;11.30;;;5.23;;
3417;SDS011;68007;51.312;12.372;2023-11-21T07:32:49;7.03;;;4.77;;
3417;SDS011;68007;51.312;12.372;2023-11-21T07:35:18;7.93;;;5.23;;
3417;SDS011;68007;51.312;12.372;2023-11-21T07:37:45;18.47;;;5.63;;
3417;SDS011;68007;51.312;12.372;2023-11-21T07:40:14;10.90;;;6.43;;
3417;SDS011;68007;51.312;12.372;2023-11-21T07:42:42;13.00;;;6.70;;
3417;SDS011;68007;51.312;12.372;2023-11-21T07:45:10;16.60;;;8.60;;
3417;SDS011;68007;51.312;12.372;2023-11-21T07:47:38;11.07;;;8.27;;
3417;SDS011;68007;51.312;12.372;2023-11-21T07:50:06;16.00;;;8.67;;
3417;SDS011;68007;51.312;12.372;2023-11-21T07:52:36;16.93;;;9.10;;
3417;SDS011;68007;51.312;12.372;2023-11-21T07:55:04;16.67;;;10.07;;
3417;SDS011;68007;51.312;12.372;2023-11-21T07:57:33;15.93;;;9.07;;
3417;SDS011;68007;51.312;12.372;2023-11-21T08:00:00;17.10;;;9.53;;
3417;SDS011;68007;51.312;12.372;2023-11-21T08:02:28;15.70;;;10.30;;
3417;SDS011;68007;51.312;12.372;2023-11-21T08:04:56;18.27;;;10.33;;
3417;SDS011;68007;51.312;12.372;2023-11-21T08:07:23;17.63;;;10.80;;
3417;SDS011;68007;51.312;12.372;2023-11-21T08:09:53;16.67;;;10.20;;
3417;SDS011;68007;51.312;12.372;2023-11-21T08:12:20;14.67;;;10.10;;
3417;SDS011;68007;51.312;12.372;2023-11-21T08:14:48;13.70;;;9.77;;
3417;SDS011;68007;51.312;12.372;2023-11-21T08:17:16;15.03;;;9.67;;
3417;SDS011;68007;51.312;12.372;2023-11-21T08:19:46;13.23;;;8.77;;
3417;SDS011;68007;51.312;12.372;2023-11-21T08:22:15;14.40;;;9.10;;
3417;SDS011;68007;51.312;12.372;2023-11-21T08:24:43;11.07;;;8.63;;
3417;SDS011;68007;51.312;12.372;2023-11-21T08:27:14;14.73;;;8.37;;
3417;SDS011;68007;51.312;12.372;2023-11-21T08:29:42;10.87;;;6.70;;
3417;SDS011;68007;51.312;12.372;2023-11-21T08:32:10;11.70;;;6.57;;
3417;SDS011;68007;51.312;12.372;2023-11-21T08:34:37;10.80;;;7.60;;
3417;SDS011;68007;51.312;12.372;2023-11-21T08:37:05;8.80;;;6.33;;
3417;SDS011;68007;51.312;12.372;2023-11-21T08:39:33;14.33;;;5.90;;
3417;SDS011;68007;51.312;12.372;2023-11-21T08:42:00;11.30;;;7.10;;
3417;SDS011;68007;51.312;12.372;2023-11-21T08:44:29;10.87;;;7.17;;
3417;SDS011;68007;51.312;12.372;2023-11-21T08:46:57;12.27;;;7.30;;
3417;SDS011;68007;51.312;12.372;2023-11-21T08:49:24;14.63;;;8.20;;
3417;SDS011;68007;51.312;12.372;2023-11-21T08:51:53;10.83;;;6.77;;
3417;SDS011;68007;51.312;12.372;2023-11-21T08:54:21;7.63;;;6.13;;
3417;SDS011;68007;51.312;12.372;2023-11-21T08:56:48;9.67;;;5.80;;
3417;SDS011;68007;51.312;12.372;2023-11-21T08:59:16;11.77;;;6.77;;
3417;SDS011;68007;51.312;12.372;2023-11-21T09:01:45;8.83;;;5.90;;
3417;SDS011;68007;51.312;12.372;2023-11-21T09:04:13;6.60;;;5.30;;
3417;SDS011;68007;51.312;12.372;2023-11-21T09:06:40;10.10;;;6.23;;
3417;SDS011;68007;51.312;12.372;2023-11-21T09:09:08;9.20;;;6.07;;
3417;SDS011;68007;51.312;12.372;2023-11-21T09:11:36;9.40;;;6.57;;
3417;SDS011;68007;51.312;12.372;2023-11-21T09:14:03;11.33;;;6.97;;
3417;SDS011;68007;51.312;12.372;2023-11-21T09:16:31;8.30;;;6.13;;
3417;SDS011;68007;51.312;12.372;2023-11-21T09:19:00;10.50;;;6.50;;
3417;SDS011;68007;51.312;12.372;2023-11-21T09:21:29;8.77;;;6.20;;
3417;SDS011;68007;51.312;12.372;2023-11-21T09:23:57;9.47;;;5.83;;
3417;SDS011;68007;51.312;12.372;2023-11-21T09:26:24;7.13;;;5.77;;
3417;SDS011;68007;51.312;12.372;2023-11-21T09:28:52;7.30;;;5.30;;
3417;SDS011;68007;51.312;12.372;2023-11-21T09:31:19;7.33;;;4.80;;
3417;SDS011;68007;51.312;12.372;2023-11-21T09:33:48;7.27;;;5.20;;
3417;SDS011;68007;51.312;12.372;2023-11-21T09:36:17;8.20;;;5.77;;
3417;SDS011;68007;51.312;12.372;2023-11-21T09:38:45;8.70;;;6.50;;
3417;SDS011;68007;51.312;12.372;2023-11-21T09:41:17;11.53;;;6.43;;
3417;SDS011;68007;51.312;12.372;2023-11-21T09:43:48;9.00;;;5.90;;
3417;SDS011;68007;51.312;12.372;2023-11-21T09:46:20;7.60;;;5.53;;
3417;SDS011;68007;51.312;12.372;2023-11-21T09:48:50;8.50;;;6.20;;
3417;SDS011;68007;51.312;12.372;2023-11-21T09:51:20;8.17;;;6.60;;
3417;SDS011;68007;51.312;12.372;2023-11-21T09:53:53;8.17;;;5.87;;
3417;SDS011;68007;51.312;12.372;2023-11-21T09:56:21;6.27;;;5.30;;
3417;SDS011;68007;51.312;12.372;2023-11-21T09:58:50;9.47;;;6.10;;
3417;SDS011;68007;51.312;12.372;2023-11-21T10:01:19;8.77;;;6.20;;
3417;SDS011;68007;51.312;12.372;2023-11-21T10:03:49;8.70;;;5.70;;
3417;SDS011;68007;51.312;12.372;2023-11-21T10:06:16;8.53;;;5.73;;
3417;SDS011;68007;51.312;12.372;2023-11-21T10:08:47;9.33;;;6.70;;
3417;SDS011;68007;51.312;12.372;2023-11-21T10:11:16;6.10;;;5.07;;
3417;SDS011;68007;51.312;12.372;2023-11-21T10:13:47;8.23;;;5.60;;
3417;SDS011;68007;51.312;12.372;2023-11-21T10:16:16;10.50;;;5.70;;
3417;SDS011;68007;51.312;12.372;2023-11-21T10:18:48;6.70;;;5.40;;
3417;SDS011;68007;51.312;12.372;2023-11-21T10:21:18;6.80;;;5.53;;
3417;SDS011;68007;51.312;12.372;2023-11-21T10:23:47;7.37;;;5.60;;
3417;SDS011;68007;51.312;12.372;2023-11-21T10:26:15;7.90;;;5.20;;
3417;SDS011;68007;51.312;12.372;2023-11-21T10:28:54;8.03;;;5.47;;
3417;SDS011;68007;51.312;12.372;2023-11-21T10:31:23;7.40;;;5.17;;
3417;SDS011;68007;51.312;12.372;2023-11-21T10:33:51;6.27;;;4.97;;
3417;SDS011;68007;51.312;12.372;2023-11-21T10:36:25;6.40;;;4.50;;
3417;SDS011;68007;51.312;12.372;2023-11-21T10:38:55;6.43;;;5.17;;
3417;SDS011;68007;51.312;12.372;2023-11-21T10:41:22;7.17;;;4.97;;
3417;SDS011;68007;51.312;12.372;2023-11-21T10:43:52;6.93;;;5.00;;
3417;SDS011;68007;51.312;12.372;2023-11-21T10:46:22;9.20;;;5.07;;
3417;SDS011;68007;51.312;12.372;2023-11-21T10:48:52;11.93;;;5.20;;
3417;SDS011;68007;51.312;12.372;2023-11-21T10:51:21;7.50;;;5.30;;
3417;SDS011;68007;51.312;12.372;2023-11-21T10:53:51;8.13;;;5.07;;
3417;SDS011;68007;51.312;12.372;2023-11-21T10:56:20;6.97;;;5.37;;
3417;SDS011;68007;51.312;12.372;2023-11-21T10:58:50;8.90;;;4.87;;
3417;SDS011;68007;51.312;12.372;2023-11-21T11:01:20;5.30;;;4.53;;
3417;SDS011;68007;51.312;12.372;2023-11-21T11:03:51;5.57;;;4.40;;
3417;SDS011;68007;51.312;12.372;2023-11-21T11:06:21;6.13;;;5.10;;
3417;SDS011;68007;51.312;12.372;2023-11-21T11:08:52;7.27;;;4.90;;
3417;SDS011;68007;51.312;12.372;2023-11-21T11:11:21;7.00;;;4.80;;
3417;SDS011;68007;51.312;12.372;2023-11-21T11:13:49;6.67;;;5.13;;
3417;SDS011;68007;51.312;12.372;2023-11-21T11:16:17;8.97;;;5.50;;
3417;SDS011;68007;51.312;12.372;2023-11-21T11:18:45;13.87;;;5.50;;
3417;SDS011;68007;51.312;12.372;2023-11-21T11:21:16;7.20;;;5.23;;
3417;SDS011;68007;51.312;12.372;2023-11-21T11:23:57;6.90;;;5.20;;
3417;SDS011;68007;51.312;12.372;2023-11-21T11:26:42;7.60;;;5.30;;
3417;SDS011;68007;51.312;12.372;2023-11-21T11:29:18;11.27;;;6.60;;
3417;SDS011;68007;51.312;12.372;2023-11-21T11:31:55;9.50;;;6.47;;
3417;SDS011;68007;51.312;12.372;2023-11-21T11:34:34;10.30;;;6.97;;
3417;SDS011;68007;51.312;12.372;2023-11-21T11:37:05;9.90;;;6.70;;
3417;SDS011;68007;51.312;12.372;2023-11-21T11:39:35;16.77;;;7.90;;
3417;SDS011;68007;51.312;12.372;2023-11-21T11:42:06;12.37;;;8.17;;
3417;SDS011;68007;51.312;12.372;2023-11-21T11:44:47;11.10;;;7.17;;
3417;SDS011;68007;51.312;12.372;2023-11-21T11:47:20;10.37;;;6.90;;
3417;SDS011;68007;51.312;12.372;2023-11-21T11:50:00;11.43;;;7.07;;
3417;SDS011;68007;51.312;12.372;2023-11-21T11:52:33;13.00;;;7.70;;
3417;SDS011;68007;51.312;12.372;2023-11-21T11:55:06;14.57;;;7.57;;
3417;SDS011;68007;51.312;12.372;2023-11-21T11:57:38;15.67;;;9.53;;
3417;SDS011;68007;51.312;12.372;2023-11-21T12:00:07;17.63;;;10.07;;
3417;SDS011;68007;51.312;12.372;2023-11-21T12:02:42;16.37;;;10.27;;
3417;SDS011;68007;51.312;12.372;2023-11-21T12:05:11;16.47;;;10.40;;
3417;SDS011;68007;51.312;12.372;2023-11-21T12:07:41;19.17;;;11.33;;
3417;SDS011;68007;51.312;12.372;2023-11-21T12:10:11;16.30;;;10.07;;
3417;SDS011;68007;51.312;12.372;2023-11-21T12:12:45;16.00;;;10.57;;
3417;SDS011;68007;51.312;12.372;2023-11-21T12:15:13;15.90;;;10.33;;
3417;SDS011;68007;51.312;12.372;2023-11-21T12:17:42;12.73;;;8.50;;
3417;SDS011;68007;51.312;12.372;2023-11-21T12:20:11;15.00;;;8.23;;
3417;SDS011;68007;51.312;12.372;2023-11-21T12:22:43;12.00;;;7.53;;
3417;SDS011;68007;51.312;12.372;2023-11-21T12:25:13;11.23;;;6.47;;
3417;SDS011;68007;51.312;12.372;2023-11-21T12:27:45;10.70;;;5.97;;
3417;SDS011;68007;51.312;12.372;2023-11-21T12:30:15;13.30;;;6.43;;
3417;SDS011;68007;51.312;12.372;2023-11-21T12:32:44;11.20;;;7.30;;
3417;SDS011;68007;51.312;12.372;2023-11-21T12:35:15;10.13;;;6.00;;
3417;SDS011;68007;51.312;12.372;2023-11-21T12:37:45;8.60;;;5.17;;
3417;SDS011;68007;51.312;12.372;2023-11-21T12:40:14;7.50;;;4.97;;
3417;SDS011;68007;51.312;12.372;2023-11-21T12:42:43;8.60;;;5.70;;
3417;SDS011;68007;51.312;12.372;2023-11-21T12:45:21;9.27;;;5.60;;
3417;SDS011;68007;51.312;12.372;2023-11-21T12:47:52;8.13;;;5.23;;
3417;SDS011;68007;51.312;12.372;2023-11-21T12:50:22;6.27;;;4.10;;
3417;SDS011;68007;51.312;12.372;2023-11-21T12:52:57;6.20;;;4.50;;
3417;SDS011;68007;51.312;12.372;2023-11-21T12:55:29;7.10;;;5.00;;
3417;SDS011;68007;51.312;12.372;2023-11-21T12:58:00;7.67;;;5.50;;
3417;SDS011;68007;51.312;12.372;2023-11-21T13:00:34;10.40;;;7.40;;
3417;SDS011;68007;51.312;12.372;2023-11-21T13:03:03;11.87;;;7.17;;
3417;SDS011;68007;51.312;12.372;2023-11-21T13:05:33;11.30;;;7.97;;
3417;SDS011;68007;51.312;12.372;2023-11-21T13:08:04;12.40;;;8.60;;
3417;SDS011;68007;51.312;12.372;2023-11-21T13:10:34;12.77;;;8.40;;
3417;SDS011;68007;51.312;12.372;2023-11-21T13:13:04;14.27;;;8.57;;
3417;SDS011;68007;51.312;12.372;2023-11-21T13:15:38;13.57;;;8.70;;
3417;SDS011;68007;51.312;12.372;2023-11-21T13:18:06;15.50;;;8.40;;
3417;SDS011;68007;51.312;12.372;2023-11-21T13:20:36;12.33;;;8.60;;
3417;SDS011;68007;51.312;12.372;2023-11-21T13:23:07;14.70;;;9.63;;
3417;SDS011;68007;51.312;12.372;2023-11-21T13:25:37;13.93;;;8.50;;
3417;SDS011;68007;51.312;12.372;2023-11-21T13:28:08;13.37;;;8.87;;
3417;SDS011;68007;51.312;12.372;2023-11-21T13:30:36;12.50;;;8.77;;
3417;SDS011;68007;51.312;12.372;2023-11-21T13:33:05;10.83;;;7.90;;
3417;SDS011;68007;51.312;12.372;2023-11-21T13:35:34;11.20;;;7.80;;
3417;SDS011;68007;51.312;12.372;2023-11-21T13:38:08;13.83;;;7.83;;
3417;SDS011;68007;51.312;12.372;2023-11-21T13:40:37;11.63;;;7.93;;
3417;SDS011;68007;51.312;12.372;2023-11-21T13:43:10;13.87;;;8.30;;
3417;SDS011;68007;51.312;12.372;2023-11-21T13:45:38;12.57;;;7.80;;
3417;SDS011;68007;51.312;12.372;2023-11-21T13:48:07;11.20;;;7.80;;
3417;SDS011;68007;51.312;12.372;2023-11-21T13:50:36;11.87;;;7.70;;
3417;SDS011;68007;51.312;12.372;2023-11-21T13:53:04;8.63;;;6.67;;
3417;SDS011;68007;51.312;12.372;2023-11-21T13:55:42;11.00;;;7.63;;
3417;SDS011;68007;51.312;12.372;2023-11-21T13:58:11;10.00;;;7.07;;
3417;SDS011;68007;51.312;12.372;2023-11-21T14:00:44;14.03;;;7.87;;
3417;SDS011;68007;51.312;12.372;2023-11-21T14:03:12;10.73;;;7.57;;
3417;SDS011;68007;51.312;12.372;2023-11-21T14:05:47;11.07;;;7.70;;
3417;SDS011;68007;51.312;12.372;2023-11-21T14:08:18;11.47;;;7.53;;
3417;SDS011;68007;51.312;12.372;2023-11-21T14:10:47;10.53;;;6.97;;
3417;SDS011;68007;51.312;12.372;2023-11-21T14:13:22;12.27;;;6.53;;
3417;SDS011;68007;51.312;12.372;2023-11-21T14:15:50;10.70;;;6.77;;
3417;SDS011;68007;51.312;12.372;2023-11-21T14:18:23;9.63;;;6.27;;
3417;SDS011;68007;51.312;12.372;2023-11-21T14:20:56;9.30;;;6.40;;
3417;SDS011;68007;51.312;12.372;2023-11-21T14:23:23;7.10;;;5.33;;
3417;SDS011;68007;51.312;12.372;2023-11-21T14:25:51;9.90;;;5.60;;
3417;SDS011;68007;51.312;12.372;2023-11-21T14:28:18;9.30;;;4.93;;
3417;SDS011;68007;51.312;12.372;2023-11-21T14:30:47;7.17;;;5.30;;
3417;SDS011;68007;51.312;12.372;2023-11-21T14:33:15;8.70;;;6.13;;
3417;SDS011;68007;51.312;12.372;2023-11-21T14:35:43;8.43;;;5.60;;
3417;SDS011;68007;51.312;12.372;2023-11-21T14:38:11;7.77;;;5.77;;
3417;SDS011;68007;51.312;12.372;2023-11-21T14:40:40;8.20;;;5.27;;
3417;SDS011;68007;51.312;12.372;2023-11-21T14:43:07;7.50;;;4.57;;
3417;SDS011;68007;51.312;12.372;2023-11-21T14:45:35;7.37;;;4.50;;
3417;SDS011;68007;51.312;12.372;2023-11-21T14:48:04;6.63;;;4.70;;
3417;SDS011;68007;51.312;12.372;2023-11-21T14:50:42;8.53;;;5.10;;
3417;SDS011;68007;51.312;12.372;2023-11-21T14:53:15;7.30;;;4.80;;